Time;durP1;ratioP1;P1;durP2;ratioP2;P2;SDS_P1;SDS_P2;PMS_P1;PMS_P2;Temp;Humidity;BMP_temperature;BMP_pressure;BME280_temperature;BME280_humidity;BME280_pressure;Samples;Min_cycle;Max_cycle;Signal;HPM_P1;HPM_P2
2021/12/02 00:02:14;;;;;;;1.50;0.80;;;;;;;7.10;75.21;97719.52;1781002;80;21166;-76
2021/12/02 00:04:40;;;;;;;2.45;0.60;;;;;;;7.11;74.92;97715.03;1781634;80;21569;-76
2021/12/02 00:07:06;;;;;;;1.82;1.20;;;;;;;7.06;74.66;97736.86;1781676;80;21025;-76
2021/12/02 00:09:34;;;;;;;1.67;0.65;;;;;;;7.00;74.53;97735.06;1797992;78;21047;-76
2021/12/02 00:12:00;;;;;;;1.25;0.60;;;;;;;6.95;74.40;97743.64;1793492;80;20993;-76
2021/12/02 00:14:28;;;;;;;3.20;0.93;;;;;;;6.96;74.18;97735.19;1793927;79;21064;-76
2021/12/02 00:22:10;;;;;;;0.93;0.80;;;;;;;6.93;73.65;97747.53;1793858;80;20993;-76
2021/12/02 00:24:38;;;;;;;3.45;0.70;;;;;;;6.93;73.52;97747.53;1793963;79;21031;-76
2021/12/02 00:27:07;;;;;;;1.57;0.88;;;;;;;6.96;73.36;97755.05;1799019;79;21053;-76
2021/12/02 00:29:34;;;;;;;1.75;0.80;;;;;;;6.97;73.27;97756.66;1798871;79;21075;-76
2021/12/02 00:32:03;;;;;;;1.55;0.70;;;;;;;6.96;73.24;97756.38;1794164;79;20987;-76
2021/12/02 00:34:29;;;;;;;1.32;0.82;;;;;;;6.93;73.26;97764.22;1794106;79;20996;-76
2021/12/02 00:36:57;;;;;;;0.80;0.65;;;;;;;6.89;73.28;97770.98;1794031;79;20925;-76
2021/12/02 00:39:24;;;;;;;4.20;0.95;;;;;;;6.84;73.32;97770.79;1793445;79;21099;-76
2021/12/02 00:41:50;;;;;;;3.35;1.12;;;;;;;6.77;73.33;97777.13;1794090;79;21565;-76
2021/12/02 00:44:22;;;;;;;2.92;1.20;;;;;;;6.74;73.30;97762.99;1794009;79;21000;-76
2021/12/02 00:46:45;;;;;;;1.90;1.10;;;;;;;6.70;73.24;97782.46;1792855;79;21572;-76
2021/12/02 00:49:17;;;;;;;3.22;0.90;;;;;;;6.65;73.16;97780.15;1794305;80;20924;-76
2021/12/02 00:51:53;;;;;;;4.67;1.10;;;;;;;6.61;73.01;97786.88;1794032;80;21073;-76
2021/12/02 00:54:19;;;;;;;2.33;1.17;;;;;;;6.57;72.88;97779.05;1793744;80;21616;-76
2021/12/02 00:56:45;;;;;;;4.22;1.00;;;;;;;6.51;72.68;97792.08;1794067;80;20972;-76
2021/12/02 00:59:11;;;;;;;4.42;1.55;;;;;;;6.48;72.44;97796.47;1793983;80;20865;-76
2021/12/02 01:01:38;;;;;;;3.35;1.17;;;;;;;6.46;72.11;97802.50;1794110;80;20882;-76
2021/12/02 01:04:11;;;;;;;3.22;1.10;;;;;;;6.41;71.92;97799.65;1793606;79;21786;-76
2021/12/02 01:06:40;;;;;;;1.65;0.90;;;;;;;6.39;71.64;97804.85;1794065;80;20992;-76
2021/12/02 01:09:06;;;;;;;3.05;0.93;;;;;;;6.35;71.42;97804.45;1793118;79;21485;-76
2021/12/02 01:11:33;;;;;;;1.80;0.60;;;;;;;6.30;71.17;97818.80;1790815;79;21579;-76
2021/12/02 01:13:59;;;;;;;2.50;0.75;;;;;;;6.25;70.94;97801.92;1790539;80;21004;-76
2021/12/02 01:16:25;;;;;;;1.27;0.80;;;;;;;6.20;70.71;97813.12;1790693;80;21175;-76
2021/12/02 01:18:51;;;;;;;1.25;0.70;;;;;;;6.16;70.51;97820.38;1790559;80;20988;-76
2021/12/02 01:21:20;;;;;;;2.00;0.57;;;;;;;6.10;70.34;97826.45;1790735;79;21501;-76
2021/12/02 01:23:53;;;;;;;3.58;0.90;;;;;;;6.06;70.12;97828.70;1790598;79;20992;-76
2021/12/02 01:26:19;;;;;;;3.37;0.68;;;;;;;6.03;69.99;97826.47;1790631;79;21012;-76
2021/12/02 01:28:45;;;;;;;2.60;0.90;;;;;;;5.98;69.79;97848.77;1790658;79;21938;-76
2021/12/02 01:31:12;;;;;;;5.00;0.95;;;;;;;5.99;69.63;97842.44;1790548;80;20889;-77
2021/12/02 01:33:39;;;;;;;2.60;1.00;;;;;;;6.02;69.49;97836.73;1790356;80;21488;-77
2021/12/02 01:36:05;;;;;;;3.75;1.17;;;;;;;6.00;69.38;97853.33;1790753;80;21498;-77
2021/12/02 01:38:31;;;;;;;3.52;1.07;;;;;;;6.02;69.24;97849.96;1790324;80;21028;-76
2021/12/02 01:40:59;;;;;;;3.95;0.80;;;;;;;5.99;69.16;97854.34;1790688;80;21103;-77
2021/12/02 01:43:50;;;;;;;6.72;1.17;;;;;;;5.94;69.00;97830.34;1790507;80;20992;-76
2021/12/02 01:46:23;;;;;;;2.45;0.60;;;;;;;5.91;68.92;97855.88;1790556;79;21055;-76
2021/12/02 01:49:03;;;;;;;1.82;0.75;;;;;;;5.84;68.74;97851.06;1790563;80;20969;-76
2021/12/02 01:51:29;;;;;;;;;;;;;;;5.78;68.64;97862.42;1792740;79;20961;-77
2021/12/02 01:54:07;;;;;;;4.60;0.60;;;;;;;5.73;68.61;97866.20;1790946;79;21774;-77
2021/12/02 01:56:55;;;;;;;3.10;1.22;;;;;;;5.67;68.59;97863.02;1790461;79;21060;-76
2021/12/02 01:59:28;;;;;;;3.00;0.57;;;;;;;5.62;68.58;97858.86;1765800;80;21106;-76
2021/12/02 02:02:00;;;;;;;3.15;0.65;;;;;;;5.59;68.55;97846.05;1790638;79;21064;-76
2021/12/02 02:04:26;;;;;;;2.12;0.60;;;;;;;5.54;68.49;97851.42;1790655;80;21548;-76
2021/12/02 02:06:57;;;;;;;5.53;0.50;;;;;;;5.54;68.46;97854.06;1790669;80;21095;-76
2021/12/02 02:09:26;;;;;;;3.05;0.72;;;;;;;5.53;68.35;97857.71;1790529;79;21001;-77
2021/12/02 02:11:53;;;;;;;1.45;0.55;;;;;;;5.52;68.31;97862.68;1789865;79;21059;-77
2021/12/02 02:14:19;;;;;;;2.05;0.60;;;;;;;5.52;68.29;97867.18;1790715;80;21508;-77
2021/12/02 02:16:47;;;;;;;3.55;0.90;;;;;;;5.51;68.25;97865.55;1790750;80;20984;-76
2021/12/02 02:19:13;;;;;;;3.37;0.65;;;;;;;5.49;68.26;97871.52;1790677;80;21497;-77
2021/12/02 02:21:40;;;;;;;3.52;0.80;;;;;;;5.47;68.27;97863.80;1790548;80;20997;-76
2021/12/02 02:24:11;;;;;;;2.10;0.88;;;;;;;5.48;68.27;97878.66;1790724;80;21056;-76
2021/12/02 02:26:36;;;;;;;5.45;0.88;;;;;;;5.45;68.31;97871.10;1789915;80;21461;-76
2021/12/02 02:29:04;;;;;;;5.00;1.10;;;;;;;5.43;68.35;97880.25;1790645;80;21036;-76
2021/12/02 02:31:30;;;;;;;3.77;1.10;;;;;;;5.43;68.30;97875.78;1790741;80;21112;-76
2021/12/02 02:33:56;;;;;;;4.40;1.27;;;;;;;5.44;68.32;97881.39;1790607;80;21450;-76
2021/12/02 02:36:26;;;;;;;4.12;0.88;;;;;;;5.42;68.33;97878.11;1790387;80;20988;-76
2021/12/02 02:38:59;;;;;;;5.75;0.82;;;;;;;5.40;68.28;97876.19;1790640;79;21039;-76
2021/12/02 02:41:33;;;;;;;3.37;0.80;;;;;;;5.40;68.36;97879.33;1790730;80;21064;-76
2021/12/02 02:43:59;;;;;;;2.60;0.72;;;;;;;5.37;68.39;97881.05;1790587;80;21145;-77
2021/12/02 02:46:36;;;;;;;3.42;0.82;;;;;;;5.38;68.41;97886.12;1790680;80;21095;-77
2021/12/02 02:49:04;;;;;;;3.77;0.65;;;;;;;5.40;68.32;97899.97;1789325;80;21060;-77
2021/12/02 02:51:31;;;;;;;2.05;0.60;;;;;;;5.43;68.20;97889.50;1790594;80;20989;-77
2021/12/02 02:54:02;;;;;;;2.55;0.50;;;;;;;5.44;68.15;97892.47;1790659;80;21060;-77
2021/12/02 02:56:29;;;;;;;4.15;0.88;;;;;;;5.41;68.13;97889.72;1789692;79;21713;-76
2021/12/02 02:59:00;;;;;;;2.17;0.62;;;;;;;5.38;68.09;97897.23;1790568;80;20997;-76
2021/12/02 03:04:41;;;;;;;6.10;0.90;;;;;;;5.33;68.09;97895.17;1790237;79;21079;-76
2021/12/02 03:06:29;;;;;;;3.20;0.80;;;;;;;5.30;68.12;97888.97;1763717;80;20977;-76
2021/12/02 03:08:53;;;;;;;3.30;0.98;;;;;;;5.30;68.11;97892.11;1787598;79;21751;-76
2021/12/02 03:11:19;;;;;;;3.80;1.05;;;;;;;5.31;68.08;97905.11;1789671;80;20999;-76
2021/12/02 03:13:54;;;;;;;4.85;0.62;;;;;;;5.32;68.04;97893.53;1789871;79;21036;-76
2021/12/02 03:19:05;;;;;;;4.40;0.70;;;;;;;5.37;67.99;97907.48;1680109;85;20995;-77
2021/12/02 03:21:31;;;;;;;4.20;0.82;;;;;;;5.35;67.99;97895.77;1680318;85;21158;-77
2021/12/02 03:23:59;;;;;;;3.12;1.02;;;;;;;5.34;67.99;97894.17;1716304;80;20880;-77
2021/12/02 03:26:26;;;;;;;2.67;0.88;;;;;;;5.36;67.93;97919.87;1789898;79;21013;-76
2021/12/02 03:28:52;;;;;;;7.10;0.95;;;;;;;5.35;67.92;97915.59;1790107;79;21032;-76
2021/12/02 03:31:19;;;;;;;2.87;1.15;;;;;;;5.37;67.90;97916.73;1789917;80;21051;-76
2021/12/02 03:33:45;;;;;;;3.77;0.62;;;;;;;5.34;67.89;97912.66;1789723;79;21131;-76
2021/12/02 03:36:12;;;;;;;3.00;0.90;;;;;;;5.34;67.85;97930.34;1789857;79;21000;-76
2021/12/02 03:38:38;;;;;;;3.52;0.90;;;;;;;5.30;67.86;97939.17;1790036;79;21048;-76
2021/12/02 03:41:04;;;;;;;1.90;0.70;;;;;;;5.30;67.87;97943.63;1789836;80;20986;-76
2021/12/02 03:43:36;;;;;;;9.35;1.77;;;;;;;5.25;67.88;97934.97;1790091;79;21032;-76
2021/12/02 03:46:02;;;;;;;3.00;1.12;;;;;;;5.27;67.91;97954.09;1789513;79;21159;-76
2021/12/02 03:48:28;;;;;;;2.33;0.98;;;;;;;5.26;67.92;97941.07;1789731;79;21576;-76
2021/12/02 03:50:55;;;;;;;3.77;1.40;;;;;;;5.26;67.94;97949.00;1790059;80;20877;-76
2021/12/02 03:53:21;;;;;;;5.62;1.42;;;;;;;5.27;67.92;97959.38;1790061;80;20999;-76
2021/12/02 03:55:47;;;;;;;3.37;1.20;;;;;;;5.29;67.89;97971.88;1789982;79;20889;-76
2021/12/02 03:58:13;;;;;;;7.20;2.10;;;;;;;5.30;67.80;97954.20;1789957;80;21887;-76
2021/12/02 04:00:39;;;;;;;30.55;13.72;;;;;;;5.32;67.59;97997.91;1789758;79;21722;-76
2021/12/02 04:03:05;;;;;;;7.45;1.60;;;;;;;5.29;67.15;97981.13;1789898;79;21001;-76
2021/12/02 04:05:31;;;;;;;7.15;1.80;;;;;;;5.24;66.73;97979.56;1790013;80;21494;-76
2021/12/02 04:07:57;;;;;;;5.45;1.42;;;;;;;5.19;66.25;97971.42;1790075;80;21582;-76
2021/12/02 04:10:24;;;;;;;8.45;2.27;;;;;;;5.11;65.97;97986.11;1789663;79;21076;-76
2021/12/02 04:13:27;;;;;;;6.05;1.40;;;;;;;5.02;65.60;97980.68;1789501;79;21094;-76
2021/12/02 04:15:28;;;;;;;3.92;1.12;;;;;;;4.94;65.54;97983.46;1770931;79;21012;-76
2021/12/02 04:17:51;;;;;;;4.50;1.20;;;;;;;4.86;65.42;97974.36;1789583;79;21012;-77
2021/12/02 04:20:22;;;;;;;3.58;1.12;;;;;;;4.85;65.34;97976.71;1790147;80;21721;-76
2021/12/02 04:22:49;;;;;;;5.65;1.07;;;;;;;4.83;65.26;97970.79;1789776;80;21462;-77
2021/12/02 04:25:16;;;;;;;6.22;1.10;;;;;;;4.76;65.18;97977.34;1789983;79;21541;-77
2021/12/02 04:27:43;;;;;;;2.47;0.85;;;;;;;4.72;65.24;97979.23;1789847;80;21010;-76
2021/12/02 04:30:12;;;;;;;3.90;1.02;;;;;;;4.69;65.31;97973.84;1789776;79;21595;-76
2021/12/02 04:32:38;;;;;;;5.47;1.00;;;;;;;4.73;65.33;97979.56;1790199;80;20993;-76
2021/12/02 04:35:05;;;;;;;4.50;1.17;;;;;;;4.75;65.40;97982.84;1789747;79;21261;-76
2021/12/02 04:37:31;;;;;;;7.15;1.25;;;;;;;4.76;65.48;97989.73;1789899;80;21024;-76
2021/12/02 04:39:57;;;;;;;4.03;1.02;;;;;;;4.77;65.52;97987.41;1789800;80;20968;-76
2021/12/02 04:42:23;;;;;;;9.95;1.90;;;;;;;4.78;65.65;97996.97;1790092;79;21122;-76
2021/12/02 04:44:50;;;;;;;5.85;1.67;;;;;;;4.80;65.78;98001.55;1789679;80;21501;-76
2021/12/02 04:47:16;;;;;;;7.15;1.37;;;;;;;4.83;65.89;98003.30;1789885;80;21055;-76
2021/12/02 04:49:43;;;;;;;4.42;1.70;;;;;;;4.86;66.04;98006.05;1789692;79;21048;-76
2021/12/02 04:52:09;;;;;;;3.77;0.93;;;;;;;4.86;66.18;98010.00;1789909;80;20981;-76
2021/12/02 04:54:35;;;;;;;6.50;1.50;;;;;;;4.85;66.34;98015.00;1790029;79;21000;-77
2021/12/02 04:57:01;;;;;;;5.78;1.92;;;;;;;4.85;66.50;98022.92;1789719;80;20992;-76
2021/12/02 04:59:27;;;;;;;9.33;1.80;;;;;;;4.85;66.64;98013.17;1790012;80;21099;-76
2021/12/02 05:01:53;;;;;;;7.60;1.47;;;;;;;4.86;66.78;98031.12;1789870;80;20976;-76
2021/12/02 05:04:19;;;;;;;5.00;1.30;;;;;;;4.85;66.66;98032.16;1789807;80;20845;-76
2021/12/02 05:06:45;;;;;;;4.85;1.00;;;;;;;4.86;66.59;98028.48;1789909;80;21027;-76
2021/12/02 05:09:11;;;;;;;1.92;0.62;;;;;;;4.83;66.45;98034.16;1789797;79;21450;-76
2021/12/02 05:11:40;;;;;;;2.95;0.93;;;;;;;4.81;66.22;98037.51;1789819;79;21107;-76
2021/12/02 05:14:08;;;;;;;4.20;0.82;;;;;;;4.78;66.12;98045.31;1789633;80;21477;-76
2021/12/02 05:16:37;;;;;;;3.42;0.95;;;;;;;4.71;65.80;98039.66;1790195;80;21883;-77
2021/12/02 05:19:03;;;;;;;6.58;0.80;;;;;;;4.61;65.71;98025.98;1790029;80;21004;-77
2021/12/02 05:21:29;;;;;;;4.42;0.82;;;;;;;4.51;65.43;98038.97;1790263;80;20866;-77
2021/12/02 05:23:55;;;;;;;5.72;1.30;;;;;;;4.46;65.28;98037.42;1790048;80;21202;-77
2021/12/02 05:26:24;;;;;;;5.08;1.10;;;;;;;4.43;65.21;98058.88;1790003;79;20873;-77
2021/12/02 05:28:51;;;;;;;5.75;1.47;;;;;;;4.39;65.23;98055.52;1790188;80;21000;-77
2021/12/02 05:31:37;;;;;;;3.92;1.70;;;;;;;4.33;65.21;98072.89;1775776;80;21434;-81
2021/12/02 05:34:03;;;;;;;3.62;1.60;;;;;;;4.30;65.20;98053.48;1740133;81;21487;-77
2021/12/02 05:36:29;;;;;;;2.42;1.27;;;;;;;4.23;65.27;98070.24;1725560;83;21788;-77
2021/12/02 05:38:55;;;;;;;4.97;1.45;;;;;;;4.18;65.25;98084.51;1725807;83;20952;-77
2021/12/02 05:41:21;;;;;;;3.17;1.72;;;;;;;4.12;65.26;98076.82;1725685;83;21728;-77
2021/12/02 05:43:47;;;;;;;4.75;1.17;;;;;;;4.03;65.34;98087.18;1725803;83;20962;-77
2021/12/02 05:46:13;;;;;;;2.75;1.00;;;;;;;3.94;65.37;98084.34;1725728;83;21081;-77
2021/12/02 05:48:40;;;;;;;2.05;0.88;;;;;;;3.89;65.41;98074.84;1725765;83;21181;-77
2021/12/02 05:51:07;;;;;;;4.05;0.85;;;;;;;3.84;65.47;98093.02;1725426;83;21062;-77
2021/12/02 05:53:32;;;;;;;3.08;0.75;;;;;;;3.80;65.50;98103.64;1725801;83;21053;-77
2021/12/02 05:55:58;;;;;;;4.80;1.10;;;;;;;3.81;65.56;98105.25;1725411;83;21013;-77
2021/12/02 05:58:24;;;;;;;5.60;1.00;;;;;;;3.80;65.60;98110.23;1725813;83;20892;-77
2021/12/02 06:00:50;;;;;;;5.40;0.80;;;;;;;3.79;65.64;98113.85;1725706;83;21223;-77
2021/12/02 06:03:16;;;;;;;3.87;0.80;;;;;;;3.82;65.66;98107.72;1725605;83;21073;-78
2021/12/02 06:05:45;;;;;;;3.37;1.20;;;;;;;3.81;65.67;98099.97;1725764;83;21648;-77
2021/12/02 06:08:10;;;;;;;5.42;1.15;;;;;;;3.78;65.71;98113.52;1725560;82;20995;-77
2021/12/02 06:10:36;;;;;;;4.58;1.32;;;;;;;3.74;65.76;98113.57;1725668;83;21637;-77
2021/12/02 06:13:02;;;;;;;5.08;1.00;;;;;;;3.75;65.83;98127.08;1725271;83;21215;-77
2021/12/02 06:15:28;;;;;;;5.37;1.55;;;;;;;3.75;65.87;98124.44;1725730;83;21094;-77
2021/12/02 06:17:54;;;;;;;4.00;1.07;;;;;;;3.74;65.95;98126.75;1725624;83;21648;-77
2021/12/02 06:20:20;;;;;;;4.37;1.00;;;;;;;3.69;66.03;98125.17;1725567;83;20895;-77
2021/12/02 06:22:46;;;;;;;4.75;0.78;;;;;;;3.68;66.08;98138.03;1725595;83;20884;-77
2021/12/02 06:27:47;;;;;;;6.72;2.85;;;;;;;3.72;66.11;98145.40;1725601;83;21034;-77
2021/12/02 06:30:16;;;;;;;4.08;1.27;;;;;;;3.67;66.10;98133.25;1725694;83;21031;-76
2021/12/02 06:32:42;;;;;;;5.33;1.27;;;;;;;3.66;66.05;98149.27;1734033;81;21082;-76
2021/12/02 06:35:09;;;;;;;4.50;0.82;;;;;;;3.63;66.05;98156.19;1741964;81;20891;-77
2021/12/02 06:37:35;;;;;;;6.10;0.90;;;;;;;3.57;66.07;98145.06;1741823;82;21803;-77
2021/12/02 06:40:01;;;;;;;3.90;1.05;;;;;;;3.52;66.09;98163.54;1741668;81;20995;-77
2021/12/02 06:42:27;;;;;;;4.85;0.80;;;;;;;3.50;66.10;98165.55;1741978;82;20891;-77
2021/12/02 06:44:53;;;;;;;6.28;1.30;;;;;;;3.49;66.14;98173.13;1741880;82;20962;-77
2021/12/02 06:47:24;;;;;;;7.83;0.98;;;;;;;3.50;66.19;98174.77;1741964;82;21005;-77
2021/12/02 06:49:49;;;;;;;3.25;0.75;;;;;;;3.55;66.22;98170.78;1741575;81;21562;-77
2021/12/02 06:52:15;;;;;;;4.00;1.00;;;;;;;3.56;66.27;98174.54;1741692;81;21010;-77
2021/12/02 06:54:41;;;;;;;4.67;1.30;;;;;;;3.57;66.33;98163.50;1730803;81;21089;-77
2021/12/02 06:57:07;;;;;;;4.53;1.62;;;;;;;3.61;66.37;98176.15;1719474;82;21513;-77
2021/12/02 06:59:33;;;;;;;3.87;1.40;;;;;;;3.63;66.39;98182.05;1730617;82;21050;-77
2021/12/02 07:01:59;;;;;;;6.83;1.52;;;;;;;3.63;66.42;98178.59;1741827;82;21759;-77
2021/12/02 07:04:25;;;;;;;5.83;1.22;;;;;;;3.60;66.45;98188.17;1741562;81;21046;-77
2021/12/02 07:06:51;;;;;;;3.33;2.35;;;;;;;3.57;66.44;98185.41;1741934;81;21029;-77
2021/12/02 07:09:17;;;;;;;2.83;1.02;;;;;;;3.51;66.46;98177.73;1741792;82;20903;-77
2021/12/02 07:11:43;;;;;;;5.03;1.45;;;;;;;3.45;66.47;98171.84;1741717;82;21059;-77
2021/12/02 07:14:14;;;;;;;4.58;1.32;;;;;;;3.41;66.52;98186.37;1723395;81;21155;-77
2021/12/02 07:16:38;;;;;;;8.13;1.98;;;;;;;3.40;66.54;98193.15;1733416;82;21573;-77
2021/12/02 07:19:08;;;;;;;4.37;1.45;;;;;;;3.40;66.56;98197.10;1729746;82;21550;-77
2021/12/02 07:21:37;;;;;;;5.30;1.42;;;;;;;3.37;66.54;98205.36;1741834;81;20990;-77
2021/12/02 07:24:04;;;;;;;6.35;1.87;;;;;;;3.34;66.53;98207.84;1712997;81;21500;-77
2021/12/02 07:26:33;;;;;;;5.10;1.60;;;;;;;3.30;66.54;98206.58;1715890;82;21122;-77
2021/12/02 07:28:59;;;;;;;6.75;2.12;;;;;;;3.25;66.54;98214.19;1733237;82;20935;-77
2021/12/02 07:31:31;;;;;;;5.53;1.57;;;;;;;3.25;66.54;98213.36;1741731;82;21036;-77
2021/12/02 07:33:57;;;;;;;9.28;2.08;;;;;;;3.22;66.53;98209.77;1744393;82;20996;-77
2021/12/02 07:36:24;;;;;;;4.47;1.37;;;;;;;3.21;66.50;98219.48;1745584;81;21510;-77
2021/12/02 07:38:50;;;;;;;8.45;2.70;;;;;;;3.21;66.49;98207.63;1746038;81;21448;-77
2021/12/02 07:41:16;;;;;;;10.78;3.85;;;;;;;3.21;66.50;98216.84;1745913;82;20963;-76
2021/12/02 07:43:43;;;;;;;6.80;2.92;;;;;;;3.21;66.48;98216.02;1745437;82;21113;-77
2021/12/02 07:46:09;;;;;;;10.55;4.70;;;;;;;3.25;66.36;98220.77;1745839;82;21564;-77
2021/12/02 07:48:35;;;;;;;9.63;4.67;;;;;;;3.26;66.37;98227.68;1745731;81;21507;-77
2021/12/02 07:51:05;;;;;;;9.95;4.53;;;;;;;3.28;66.34;98219.09;1758468;81;21082;-77
2021/12/02 07:53:31;;;;;;;15.28;4.22;;;;;;;3.30;66.30;98236.88;1732856;82;21002;-77
2021/12/02 07:55:57;;;;;;;23.20;7.92;;;;;;;3.34;66.25;98222.32;1754160;81;20994;-77
2021/12/02 07:58:24;;;;;;;15.25;5.50;;;;;;;3.39;66.20;98238.43;1758524;81;20994;-77
2021/12/02 08:00:51;;;;;;;11.88;3.83;;;;;;;3.39;66.19;98242.38;1758318;81;21050;-77
2021/12/02 08:03:17;;;;;;;15.43;5.95;;;;;;;3.40;66.15;98240.08;1758006;81;21875;-77
2021/12/02 08:05:43;;;;;;;18.70;3.92;;;;;;;3.44;66.12;98259.80;1757574;81;21069;-76
2021/12/02 08:08:10;;;;;;;11.83;4.17;;;;;;;3.46;66.08;98251.21;1758040;81;20975;-77
2021/12/02 08:10:36;;;;;;;6.78;3.10;;;;;;;3.51;66.03;98269.13;1757735;81;20998;-77
2021/12/02 08:13:03;;;;;;;9.38;3.00;;;;;;;3.54;66.02;98276.68;1757564;81;21101;-77
2021/12/02 08:15:30;;;;;;;6.90;2.40;;;;;;;3.56;66.02;98287.02;1757452;81;21173;-77
2021/12/02 08:17:57;;;;;;;7.95;2.50;;;;;;;3.58;66.04;98294.27;1757908;81;20971;-77
2021/12/02 08:20:26;;;;;;;6.78;2.37;;;;;;;3.59;66.06;98286.70;1756231;81;20999;-77
2021/12/02 08:22:53;;;;;;;8.93;1.57;;;;;;;3.61;66.05;98304.45;1758498;80;21535;-77
2021/12/02 08:25:21;;;;;;;8.40;2.33;;;;;;;3.65;66.06;98305.74;1758856;81;21570;-77
2021/12/02 08:27:47;;;;;;;4.58;1.72;;;;;;;3.69;66.07;98304.40;1758334;81;21101;-77
2021/12/02 08:30:14;;;;;;;6.17;2.65;;;;;;;3.74;66.04;98324.44;1758635;81;21086;-77
2021/12/02 08:32:42;;;;;;;9.38;3.65;;;;;;;3.77;66.05;98317.48;1757806;81;21058;-77
2021/12/02 08:35:12;;;;;;;7.12;2.52;;;;;;;3.81;66.10;98324.87;1744032;81;20962;-77
2021/12/02 08:37:42;;;;;;;10.40;2.42;;;;;;;3.82;66.09;98323.05;1720466;82;21006;-77
2021/12/02 08:40:07;;;;;;;5.92;1.80;;;;;;;3.87;66.10;98316.77;1736856;82;21985;-77
2021/12/02 08:42:33;;;;;;;5.47;2.12;;;;;;;3.87;66.08;98315.45;1732337;81;21070;-77
2021/12/02 08:45:00;;;;;;;6.87;1.82;;;;;;;3.90;66.04;98321.18;1744227;82;20895;-77
2021/12/02 08:47:28;;;;;;;7.65;1.98;;;;;;;3.94;65.99;98329.55;1738128;82;21030;-77
2021/12/02 08:49:55;;;;;;;8.90;1.90;;;;;;;3.98;65.99;98336.08;1722822;81;21034;-77
2021/12/02 08:52:22;;;;;;;14.10;2.60;;;;;;;4.05;65.93;98337.00;1716183;82;21141;-77
2021/12/02 08:54:50;;;;;;;7.05;2.05;;;;;;;4.11;65.88;98346.86;1744377;82;21131;-77
2021/12/02 08:57:18;;;;;;;10.18;2.10;;;;;;;4.12;65.81;98345.84;1744190;81;21546;-77
2021/12/02 08:59:44;;;;;;;31.87;9.18;;;;;;;4.15;65.73;98349.44;1744317;82;21482;-77
2021/12/02 09:02:11;;;;;;;25.72;8.13;;;;;;;4.18;65.61;98346.95;1731944;82;21082;-77
2021/12/02 09:04:37;;;;;;;29.10;8.83;;;;;;;4.20;65.45;98357.64;1714818;83;21161;-77
2021/12/02 09:07:03;;;;;;;12.07;2.98;;;;;;;4.24;65.29;98367.34;1730522;82;21010;-77
2021/12/02 09:09:29;;;;;;;7.62;2.45;;;;;;;4.25;65.13;98365.85;1744338;82;21486;-77
2021/12/02 09:11:57;;;;;;;6.65;1.82;;;;;;;4.23;65.09;98361.23;1744399;82;20887;-77
2021/12/02 09:14:23;;;;;;;4.85;1.10;;;;;;;4.23;65.02;98371.79;1744410;82;21081;-77
2021/12/02 09:16:51;;;;;;;5.55;1.87;;;;;;;4.19;64.67;98353.36;1744524;81;21288;-77
2021/12/02 09:19:20;;;;;;;7.70;3.17;;;;;;;4.16;64.53;98357.67;1743691;82;21057;-76
2021/12/02 09:21:46;;;;;;;11.10;2.90;;;;;;;4.14;64.32;98366.28;1744091;82;21065;-77
2021/12/02 09:24:12;;;;;;;9.38;2.40;;;;;;;4.15;64.15;98384.25;1744088;82;21069;-77
2021/12/02 09:26:39;;;;;;;9.95;3.12;;;;;;;4.15;64.01;98377.13;1743765;82;21501;-77
2021/12/02 09:29:05;;;;;;;12.47;3.15;;;;;;;4.17;63.96;98384.87;1720999;82;21337;-77
2021/12/02 09:31:31;;;;;;;7.10;2.98;;;;;;;4.16;63.92;98399.88;1744074;81;21071;-77
2021/12/02 09:33:58;;;;;;;8.33;2.77;;;;;;;4.19;63.85;98385.01;1717699;82;21022;-77
2021/12/02 09:36:24;;;;;;;14.18;3.87;;;;;;;4.18;63.70;98387.84;1731294;82;21075;-77
2021/12/02 09:38:50;;;;;;;5.05;2.12;;;;;;;4.21;63.60;98396.72;1733127;81;21029;-77
2021/12/02 09:41:16;;;;;;;5.28;2.60;;;;;;;4.21;63.55;98393.59;1738878;80;21364;-76
2021/12/02 09:43:42;;;;;;;5.78;2.20;;;;;;;4.22;63.33;98400.48;1723525;82;21179;-76
2021/12/02 09:46:08;;;;;;;8.50;2.20;;;;;;;4.19;63.15;98398.70;1759629;81;21061;-77
2021/12/02 09:48:34;;;;;;;13.18;4.00;;;;;;;4.18;63.04;98398.40;1742906;81;21564;-76
2021/12/02 09:51:23;;;;;;;7.83;3.45;;;;;;;4.18;62.93;98396.58;1728085;82;21081;-76
2021/12/02 09:53:38;;;;;;;6.30;2.95;;;;;;;4.20;62.92;98395.89;1732170;81;22510;-75
2021/12/02 09:56:11;;;;;;;12.90;4.42;;;;;;;4.21;62.82;98392.27;1740913;81;21037;-76
2021/12/02 09:58:30;;;;;;;12.25;2.87;;;;;;;4.22;62.75;98400.48;1745311;81;21470;-76
2021/12/02 10:01:07;;;;;;;6.45;3.00;;;;;;;4.23;62.47;98392.89;1734559;82;20891;-76
2021/12/02 10:03:33;;;;;;;8.33;2.20;;;;;;;4.23;62.25;98392.07;1703595;82;21505;-76
2021/12/02 10:06:05;;;;;;;9.88;4.45;;;;;;;4.23;61.99;98392.07;1697071;83;21498;-76
2021/12/02 10:08:43;;;;;;;4.65;2.22;;;;;;;4.26;61.91;98391.70;1690670;83;21021;-76
2021/12/02 10:11:09;;;;;;;11.78;2.83;;;;;;;4.27;61.67;98394.67;1701708;83;21913;-76
2021/12/02 10:13:45;;;;;;;7.17;3.22;;;;;;;4.28;61.40;98387.91;1694345;84;21065;-76
2021/12/02 10:16:26;;;;;;;4.17;1.40;;;;;;;4.28;61.28;98395.83;1710581;82;21085;-77
2021/12/02 10:18:59;;;;;;;8.03;2.47;;;;;;;4.31;61.21;98403.38;1692332;83;21590;-77
2021/12/02 10:21:33;;;;;;;13.00;1.80;;;;;;;4.31;61.03;98402.55;1689527;82;21057;-76
2021/12/02 10:24:04;;;;;;;8.00;1.80;;;;;;;4.32;60.97;98394.97;1721138;82;21041;-76
2021/12/02 10:26:37;;;;;;;4.15;1.25;;;;;;;4.33;60.89;98408.46;1684686;83;21050;-76
2021/12/02 10:29:16;;;;;;;4.80;1.60;;;;;;;4.35;60.81;98423.14;1705662;83;21755;-76
2021/12/02 10:31:47;;;;;;;7.83;2.55;;;;;;;4.33;60.64;98429.08;1710384;83;21190;-76
2021/12/02 10:34:15;;;;;;;4.60;1.65;;;;;;;4.32;60.51;98432.73;1718375;82;21101;-76
2021/12/02 10:36:44;;;;;;;3.60;1.27;;;;;;;4.36;60.47;98431.34;1710828;83;21025;-76
2021/12/02 10:39:22;;;;;;;4.12;1.42;;;;;;;4.41;60.44;98436.10;1710931;83;21215;-76
2021/12/02 10:42:05;;;;;;;10.38;2.40;;;;;;;4.42;60.38;98443.85;1703295;83;21081;-76
2021/12/02 10:44:34;;;;;;;7.92;2.22;;;;;;;4.46;60.27;98439.86;1710618;83;21354;-76
2021/12/02 10:47:11;;;;;;;8.10;2.02;;;;;;;4.44;60.20;98437.88;1710943;83;21559;-76
2021/12/02 10:49:43;;;;;;;8.68;2.92;;;;;;;4.45;60.22;98436.89;1713536;82;21074;-76
2021/12/02 10:52:16;;;;;;;10.20;3.35;;;;;;;4.41;60.00;98438.24;1710842;83;21053;-76
2021/12/02 10:54:47;;;;;;;8.03;3.67;;;;;;;4.40;59.85;98445.83;1707444;83;21046;-76
2021/12/02 10:57:17;;;;;;;20.12;4.87;;;;;;;4.41;59.74;98446.16;1705900;83;21444;-76
2021/12/02 10:59:50;;;;;;;8.28;1.70;;;;;;;4.46;59.72;98445.63;1706140;82;21009;-76
2021/12/02 11:02:30;;;;;;;3.50;1.37;;;;;;;4.47;59.56;98452.03;1698979;84;21078;-76
2021/12/02 11:05:06;;;;;;;6.72;1.98;;;;;;;4.48;59.33;98448.41;1655006;86;21112;-76
2021/12/02 11:07:42;;;;;;;23.98;6.42;;;;;;;4.49;59.25;98445.27;1693772;84;21023;-76
2021/12/02 11:10:09;;;;;;;13.55;3.27;;;;;;;4.47;59.08;98455.99;1704435;82;21257;-76
2021/12/02 11:12:43;;;;;;;9.18;3.27;;;;;;;4.47;58.91;98454.67;1717412;82;21103;-76
2021/12/02 11:15:20;;;;;;;11.57;4.22;;;;;;;4.48;58.65;98454.18;1710479;83;21965;-76
2021/12/02 11:17:51;;;;;;;13.32;4.87;;;;;;;4.46;58.44;98472.85;1711201;83;21065;-76
2021/12/02 11:20:26;;;;;;;11.93;4.05;;;;;;;4.45;58.10;98470.38;1711278;83;21090;-76
2021/12/02 11:22:57;;;;;;;15.13;4.55;;;;;;;4.45;57.94;98472.52;1728669;82;21231;-76
2021/12/02 11:25:22;;;;;;;17.77;5.22;;;;;;;4.50;57.79;98470.67;1729469;81;21014;-76
2021/12/02 11:27:49;;;;;;;11.57;5.40;;;;;;;4.52;57.58;98474.77;1739417;82;21671;-76
2021/12/02 11:30:21;;;;;;;8.28;2.77;;;;;;;4.53;57.40;98479.05;1740631;81;21027;-76
2021/12/02 11:32:51;;;;;;;11.35;3.47;;;;;;;4.54;57.06;98471.93;1734337;80;21026;-76
2021/12/02 11:35:27;;;;;;;8.73;3.95;;;;;;;4.53;56.92;98478.23;1721970;82;21124;-76
2021/12/02 11:38:04;;;;;;;17.82;7.33;;;;;;;4.52;56.79;98486.64;1734396;82;21478;-76
2021/12/02 11:40:35;;;;;;;10.80;3.87;;;;;;;4.51;56.71;98474.44;1715898;83;20996;-76
2021/12/02 11:43:01;;;;;;;7.20;2.90;;;;;;;4.47;56.68;98488.98;1723222;81;21034;-76
2021/12/02 11:45:30;;;;;;;7.30;2.55;;;;;;;4.42;56.47;98493.99;1735233;81;21005;-76
2021/12/02 11:47:56;;;;;;;15.43;4.08;;;;;;;4.39;56.33;98498.31;1730505;81;21137;-76
2021/12/02 11:50:25;;;;;;;5.72;2.52;;;;;;;4.35;56.17;98504.94;1729018;81;21010;-76
2021/12/02 11:52:51;;;;;;;8.90;3.00;;;;;;;4.34;56.09;98509.88;1757561;81;21054;-76
2021/12/02 11:55:20;;;;;;;9.63;3.65;;;;;;;4.33;56.14;98506.91;1758432;81;20946;-76
2021/12/02 11:57:47;;;;;;;12.28;4.70;;;;;;;4.34;56.17;98505.92;1758537;81;20987;-77
2021/12/02 12:00:17;;;;;;;7.80;3.30;;;;;;;4.37;56.23;98521.89;1758480;81;21077;-76